Philip S. W. Goldson International Airport
MZBZ : now visible

Airfield :











YOU CAN JOIN US ON...

 
LOGIN :

Register | Disclaimer

   EN    FR    IT 

 









Legend :    VFR   Marginal VFR   IFR   Intensive IFR   Very Intensive IFR
Visi :
Ceiling :
>= 8 km
>= 3000ft
5 to 8 km
1000 to 3000 ft
1500m to 5 km
500 to 1000 ft
800 to 1500m
200 to 500 ft
< 800m
< 200 ft
Symbols :   Thunderstorms  Fog  Heavy snow  Heavy precipitations  Wind > 20 kt






- Airport Elevation : 15 ft
- IATA code : BZE


MZBZ - Philip S. W. Goldson International

EXPIRED METARs :
  • 250300Z 11005KT 9999 SCT019 29/27 A2990 Q1012 NOSIG RMK LTG-SW
  • 250200Z 10006KT 9999 BKN019 29/27 A2988 Q1011 NOSIG
  • 250100Z 10007KT 9999 BKN019 29/27 A2986 Q1011 NOSIG

TAF TAF MZBZ
Valid from the 25 at 00:00 until the 26 at 00:00 UTC


242200Z 2500/2524 10008KT 9999 SCT020
PROB30
TEMPO 2500/2503 5000 SHRA BKN018
PROB40
TEMPO 2506/2514 4000 SHRA BKN015
PROB30
TEMPO 2507/2512 3000 TSRA FEW012CB
MHTG FIR / North America



MET'MAP, your aeronautical weather chart ! - Copyright ORBIFLY December 2007 - Disclaimer

ORBIFLY MET'MAP TEAM :

Programming & Development : Alexandra Zaïnal
Original concept : Baudouin d'Aumeries
Technical & hardware support : Manuel Goepfert
Assistance : Marc-Olivier Méhu




SOURCES & CREDITS :

   NOAA       Earth
Advisory